sensor_id;sensor_type;location;lat;lon;timestamp;pressure;altitude;pressure_sealevel;temperature;humidity
26978;BME280;56314;48.088;11.642;2022-10-04T00:01:50;96179.75;;;5.98;100.00
26978;BME280;56314;48.088;11.642;2022-10-04T00:06:55;96176.50;;;5.93;100.00
26978;BME280;56314;48.088;11.642;2022-10-04T00:09:23;96184.28;;;5.95;100.00
26978;BME280;56314;48.088;11.642;2022-10-04T00:11:52;96185.22;;;5.92;99.94
26978;BME280;56314;48.088;11.642;2022-10-04T00:14:21;96182.78;;;5.89;100.00
26978;BME280;56314;48.088;11.642;2022-10-04T00:16:50;96184.41;;;5.92;100.00
26978;BME280;56314;48.088;11.642;2022-10-04T00:29:40;96170.88;;;6.03;100.00
26978;BME280;56314;48.088;11.642;2022-10-04T00:34:52;96160.88;;;6.12;100.00
26978;BME280;56314;48.088;11.642;2022-10-04T00:37:19;96164.34;;;6.13;100.00
26978;BME280;56314;48.088;11.642;2022-10-04T00:39:57;96163.63;;;6.09;100.00
26978;BME280;56314;48.088;11.642;2022-10-04T00:45:28;96170.53;;;6.10;100.00
26978;BME280;56314;48.088;11.642;2022-10-04T00:50:37;96160.63;;;5.99;100.00
26978;BME280;56314;48.088;11.642;2022-10-04T00:53:13;96158.75;;;6.01;100.00
26978;BME280;56314;48.088;11.642;2022-10-04T00:55:48;96151.13;;;5.97;100.00
26978;BME280;56314;48.088;11.642;2022-10-04T00:58:24;96149.31;;;5.99;99.74
26978;BME280;56314;48.088;11.642;2022-10-04T01:00:52;96146.44;;;5.86;100.00
26978;BME280;56314;48.088;11.642;2022-10-04T01:03:34;96151.56;;;5.88;100.00
26978;BME280;56314;48.088;11.642;2022-10-04T01:06:04;96148.03;;;5.89;99.63
26978;BME280;56314;48.088;11.642;2022-10-04T01:08:38;96148.03;;;5.89;99.56
26978;BME280;56314;48.088;11.642;2022-10-04T01:11:23;96146.44;;;5.86;99.59
26978;BME280;56314;48.088;11.642;2022-10-04T01:14:24;96155.16;;;5.85;100.00
26978;BME280;56314;48.088;11.642;2022-10-04T01:16:51;96152.06;;;5.77;99.29
26978;BME280;56314;48.088;11.642;2022-10-04T01:22:08;96146.34;;;5.68;99.91
26978;BME280;56314;48.088;11.642;2022-10-04T01:24:36;96142.06;;;5.67;100.00
26978;BME280;56314;48.088;11.642;2022-10-04T01:27:02;96139.88;;;5.58;100.00
26978;BME280;56314;48.088;11.642;2022-10-04T01:29:30;96135.22;;;5.46;100.00
26978;BME280;56314;48.088;11.642;2022-10-04T01:31:58;96144.03;;;5.43;100.00
26978;BME280;56314;48.088;11.642;2022-10-04T01:34:27;96136.91;;;5.47;100.00
26978;BME280;56314;48.088;11.642;2022-10-04T01:36:54;96129.00;;;5.48;100.00
26978;BME280;56314;48.088;11.642;2022-10-04T01:39:22;96130.91;;;5.45;100.00
26978;BME280;56314;48.088;11.642;2022-10-04T01:41:57;96128.19;;;5.48;100.00
26978;BME280;56314;48.088;11.642;2022-10-04T01:44:30;96130.78;;;5.48;99.59
26978;BME280;56314;48.088;11.642;2022-10-04T01:47:01;96133.47;;;5.46;100.00
26978;BME280;56314;48.088;11.642;2022-10-04T01:49:30;96124.72;;;5.47;100.00
26978;BME280;56314;48.088;11.642;2022-10-04T01:52:05;96114.88;;;5.35;100.00
26978;BME280;56314;48.088;11.642;2022-10-04T01:54:43;96122.81;;;5.32;100.00
26978;BME280;56314;48.088;11.642;2022-10-04T01:57:26;96115.78;;;5.34;100.00
26978;BME280;56314;48.088;11.642;2022-10-04T02:05:04;96117.25;;;5.20;100.00
26978;BME280;56314;48.088;11.642;2022-10-04T02:07:31;96099.78;;;5.22;100.00
26978;BME280;56314;48.088;11.642;2022-10-04T02:10:04;96101.75;;;5.17;100.00
26978;BME280;56314;48.088;11.642;2022-10-04T02:12:32;96100.34;;;5.10;100.00
26978;BME280;56314;48.088;11.642;2022-10-04T02:15:00;96097.66;;;5.12;100.00
26978;BME280;56314;48.088;11.642;2022-10-04T02:17:29;96098.44;;;5.14;100.00
26978;BME280;56314;48.088;11.642;2022-10-04T02:19:57;96098.84;;;5.04;100.00
26978;BME280;56314;48.088;11.642;2022-10-04T02:22:24;96103.53;;;4.96;100.00
26978;BME280;56314;48.088;11.642;2022-10-04T02:24:52;96094.34;;;4.87;100.00
26978;BME280;56314;48.088;11.642;2022-10-04T02:27:19;96097.13;;;4.84;100.00
26978;BME280;56314;48.088;11.642;2022-10-04T02:29:44;96102.31;;;4.84;100.00
26978;BME280;56314;48.088;11.642;2022-10-04T02:32:12;96092.50;;;4.91;100.00
26978;BME280;56314;48.088;11.642;2022-10-04T02:34:57;96088.31;;;4.87;100.00
26978;BME280;56314;48.088;11.642;2022-10-04T02:37:24;96088.31;;;4.87;100.00
26978;BME280;56314;48.088;11.642;2022-10-04T02:39:54;96090.22;;;4.83;100.00
26978;BME280;56314;48.088;11.642;2022-10-04T02:45:28;96106.00;;;4.99;100.00
26978;BME280;56314;48.088;11.642;2022-10-04T02:48:00;96106.09;;;4.98;100.00
26978;BME280;56314;48.088;11.642;2022-10-04T02:50:55;96098.31;;;4.96;99.95
26978;BME280;56314;48.088;11.642;2022-10-04T02:56:08;96093.97;;;4.97;99.35
26978;BME280;56314;48.088;11.642;2022-10-04T02:58:36;96097.50;;;4.96;99.16
26978;BME280;56314;48.088;11.642;2022-10-04T03:01:03;96093.31;;;4.91;98.95
26978;BME280;56314;48.088;11.642;2022-10-04T03:03:30;96091.69;;;4.89;98.66
26978;BME280;56314;48.088;11.642;2022-10-04T03:08:26;96094.97;;;4.73;99.53
26978;BME280;56314;48.088;11.642;2022-10-04T03:10:54;96093.34;;;4.71;100.00
26978;BME280;56314;48.088;11.642;2022-10-04T03:13:19;96090.78;;;4.69;100.00
26978;BME280;56314;48.088;11.642;2022-10-04T03:15:46;96089.88;;;4.70;100.00
26978;BME280;56314;48.088;11.642;2022-10-04T03:18:14;96077.44;;;4.77;99.88
26978;BME280;56314;48.088;11.642;2022-10-04T03:20:41;96089.94;;;4.69;99.46
26978;BME280;56314;48.088;11.642;2022-10-04T03:23:07;96090.88;;;4.68;99.67
26978;BME280;56314;48.088;11.642;2022-10-04T03:28:10;96094.25;;;4.70;99.65
26978;BME280;56314;48.088;11.642;2022-10-04T03:30:35;96093.38;;;4.69;99.01
26978;BME280;56314;48.088;11.642;2022-10-04T03:33:01;96085.84;;;4.63;99.19
26978;BME280;56314;48.088;11.642;2022-10-04T03:35:30;96084.16;;;4.62;99.24
26978;BME280;56314;48.088;11.642;2022-10-04T03:37:57;96074.41;;;4.67;98.56
26978;BME280;56314;48.088;11.642;2022-10-04T03:40:26;96089.44;;;4.60;98.95
26978;BME280;56314;48.088;11.642;2022-10-04T03:42:53;96086.31;;;4.52;98.59
26978;BME280;56314;48.088;11.642;2022-10-04T03:45:19;96093.19;;;4.53;99.10
26978;BME280;56314;48.088;11.642;2022-10-04T03:47:49;96097.56;;;4.53;98.94
26978;BME280;56314;48.088;11.642;2022-10-04T03:50:18;96094.56;;;4.62;99.21
26978;BME280;56314;48.088;11.642;2022-10-04T03:53:11;96091.47;;;4.54;99.13
26978;BME280;56314;48.088;11.642;2022-10-04T03:55:41;96085.28;;;4.56;99.20
26978;BME280;56314;48.088;11.642;2022-10-04T03:58:09;96086.88;;;4.59;99.04
26978;BME280;56314;48.088;11.642;2022-10-04T04:00:41;96080.25;;;4.52;99.05
26978;BME280;56314;48.088;11.642;2022-10-04T04:03:13;96089.16;;;4.46;99.52
26978;BME280;56314;48.088;11.642;2022-10-04T04:05:50;96094.25;;;4.49;99.57
26978;BME280;56314;48.088;11.642;2022-10-04T04:08:32;96085.28;;;4.56;99.32
26978;BME280;56314;48.088;11.642;2022-10-04T04:11:01;96085.53;;;4.50;98.84
26978;BME280;56314;48.088;11.642;2022-10-04T04:16:08;96090.06;;;4.45;100.00
26978;BME280;56314;48.088;11.642;2022-10-04T04:18:37;96090.00;;;4.46;100.00
26978;BME280;56314;48.088;11.642;2022-10-04T04:21:05;96084.22;;;4.40;99.56
26978;BME280;56314;48.088;11.642;2022-10-04T04:23:40;96093.84;;;4.38;99.80
26978;BME280;56314;48.088;11.642;2022-10-04T04:26:24;96086.16;;;4.35;100.00
26978;BME280;56314;48.088;11.642;2022-10-04T04:29:00;96080.69;;;4.41;99.44
26978;BME280;56314;48.088;11.642;2022-10-04T04:31:55;96082.72;;;4.34;100.00
26978;BME280;56314;48.088;11.642;2022-10-04T04:34:26;96086.88;;;4.38;99.39
26978;BME280;56314;48.088;11.642;2022-10-04T04:37:01;96091.19;;;4.39;99.33
26978;BME280;56314;48.088;11.642;2022-10-04T04:39:30;96094.09;;;4.31;99.31
26978;BME280;56314;48.088;11.642;2022-10-04T04:42:03;96086.78;;;4.41;99.40
26978;BME280;56314;48.088;11.642;2022-10-04T04:44:30;96099.69;;;4.43;99.36
26978;BME280;56314;48.088;11.642;2022-10-04T04:46:57;96101.78;;;4.35;99.71
26978;BME280;56314;48.088;11.642;2022-10-04T04:49:26;96095.72;;;4.34;100.00
26978;BME280;56314;48.088;11.642;2022-10-04T04:51:53;96089.59;;;4.35;100.00
26978;BME280;56314;48.088;11.642;2022-10-04T04:54:22;96095.91;;;4.29;99.99
26978;BME280;56314;48.088;11.642;2022-10-04T04:56:51;96096.88;;;4.27;99.36
26978;BME280;56314;48.088;11.642;2022-10-04T04:59:19;96085.47;;;4.31;99.52
26978;BME280;56314;48.088;11.642;2022-10-04T05:01:46;96085.97;;;4.19;99.71
26978;BME280;56314;48.088;11.642;2022-10-04T05:06:39;96097.47;;;4.13;100.00
26978;BME280;56314;48.088;11.642;2022-10-04T05:09:05;96089.69;;;4.11;100.00
26978;BME280;56314;48.088;11.642;2022-10-04T05:11:45;96074.00;;;4.14;100.00
26978;BME280;56314;48.088;11.642;2022-10-04T05:14:14;96075.78;;;4.12;100.00
26978;BME280;56314;48.088;11.642;2022-10-04T05:16:49;96092.06;;;4.18;100.00
26978;BME280;56314;48.088;11.642;2022-10-04T05:19:24;96106.94;;;4.14;100.00
26978;BME280;56314;48.088;11.642;2022-10-04T05:21:54;96105.91;;;4.18;100.00
26978;BME280;56314;48.088;11.642;2022-10-04T05:24:21;96096.16;;;4.23;100.00
26978;BME280;56314;48.088;11.642;2022-10-04T05:26:53;96091.81;;;4.24;99.96
26978;BME280;56314;48.088;11.642;2022-10-04T05:29:22;96091.41;;;4.33;100.00
26978;BME280;56314;48.088;11.642;2022-10-04T05:31:59;96099.41;;;4.28;100.00
26978;BME280;56314;48.088;11.642;2022-10-04T05:34:30;96103.59;;;4.32;100.00
26978;BME280;56314;48.088;11.642;2022-10-04T05:37:22;96101.69;;;4.36;100.00
26978;BME280;56314;48.088;11.642;2022-10-04T05:40:15;96095.59;;;4.37;100.00
26978;BME280;56314;48.088;11.642;2022-10-04T05:42:48;96097.06;;;4.44;100.00
26978;BME280;56314;48.088;11.642;2022-10-04T05:45:18;96092.25;;;4.56;100.00
26978;BME280;56314;48.088;11.642;2022-10-04T05:47:46;96077.53;;;4.55;99.13
26978;BME280;56314;48.088;11.642;2022-10-04T05:50:19;96080.94;;;4.57;99.27
26978;BME280;56314;48.088;11.642;2022-10-04T05:52:49;96081.69;;;4.59;99.37
26978;BME280;56314;48.088;11.642;2022-10-04T05:55:21;96086.38;;;4.71;99.67
26978;BME280;56314;48.088;11.642;2022-10-04T06:00:20;96071.00;;;4.86;99.18
26978;BME280;56314;48.088;11.642;2022-10-04T06:03:08;96076.88;;;4.91;99.19
26978;BME280;56314;48.088;11.642;2022-10-04T06:05:53;96084.16;;;5.03;98.88
26978;BME280;56314;48.088;11.642;2022-10-04T06:11:30;96085.50;;;5.31;98.90
26978;BME280;56314;48.088;11.642;2022-10-04T06:17:18;96101.34;;;5.84;97.41
26978;BME280;56314;48.088;11.642;2022-10-04T06:20:03;96094.91;;;6.10;95.87
26978;BME280;56314;48.088;11.642;2022-10-04T06:22:32;96087.13;;;6.28;94.38
26978;BME280;56314;48.088;11.642;2022-10-04T06:27:39;96087.97;;;6.46;94.72
26978;BME280;56314;48.088;11.642;2022-10-04T06:30:16;96087.59;;;6.54;94.19
26978;BME280;56314;48.088;11.642;2022-10-04T06:38:22;96083.53;;;6.66;95.35
26978;BME280;56314;48.088;11.642;2022-10-04T06:43:54;96087.53;;;6.73;93.56
26978;BME280;56314;48.088;11.642;2022-10-04T06:49:30;96084.13;;;6.88;94.58
26978;BME280;56314;48.088;11.642;2022-10-04T06:52:22;96082.13;;;6.93;93.18
26978;BME280;56314;48.088;11.642;2022-10-04T06:58:03;96078.53;;;7.12;92.70
26978;BME280;56314;48.088;11.642;2022-10-04T07:00:41;96089.06;;;7.11;92.85
26978;BME280;56314;48.088;11.642;2022-10-04T07:03:21;96082.59;;;7.18;93.90
26978;BME280;56314;48.088;11.642;2022-10-04T07:05:58;96070.72;;;7.28;94.38
26978;BME280;56314;48.088;11.642;2022-10-04T07:08:47;96071.69;;;7.43;93.13
26978;BME280;56314;48.088;11.642;2022-10-04T07:11:26;96072.28;;;7.64;93.47
26978;BME280;56314;48.088;11.642;2022-10-04T07:14:04;96066.63;;;7.88;92.26
26978;BME280;56314;48.088;11.642;2022-10-04T07:16:47;96064.44;;;8.12;91.48
26978;BME280;56314;48.088;11.642;2022-10-04T07:19:29;96076.44;;;8.47;91.37
26978;BME280;56314;48.088;11.642;2022-10-04T07:27:17;96071.22;;;9.06;86.58
26978;BME280;56314;48.088;11.642;2022-10-04T07:29:44;96070.88;;;9.13;85.43
26978;BME280;56314;48.088;11.642;2022-10-04T07:32:23;96074.44;;;9.26;85.48
26978;BME280;56314;48.088;11.642;2022-10-04T07:35:31;96084.88;;;9.40;85.08
26978;BME280;56314;48.088;11.642;2022-10-04T07:40:40;96074.69;;;9.65;85.06
26978;BME280;56314;48.088;11.642;2022-10-04T07:43:18;96075.00;;;9.88;83.90
26978;BME280;56314;48.088;11.642;2022-10-04T07:45:46;96083.69;;;9.88;84.00
26978;BME280;56314;48.088;11.642;2022-10-04T07:48:14;96082.06;;;10.14;83.98
26978;BME280;56314;48.088;11.642;2022-10-04T07:53:20;96085.97;;;10.49;81.93
26978;BME280;56314;48.088;11.642;2022-10-04T07:55:56;96088.72;;;10.60;81.45
26978;BME280;56314;48.088;11.642;2022-10-04T07:58:40;96089.06;;;10.69;80.78
26978;BME280;56314;48.088;11.642;2022-10-04T08:17:40;96098.00;;;11.57;77.26
26978;BME280;56314;48.088;11.642;2022-10-04T08:20:29;96102.00;;;11.62;77.09
26978;BME280;56314;48.088;11.642;2022-10-04T08:39:57;96092.19;;;13.68;71.68
26978;BME280;56314;48.088;11.642;2022-10-04T08:51:16;96086.50;;;15.26;61.59
26978;BME280;56314;48.088;11.642;2022-10-04T09:09:47;96047.72;;;17.06;54.34
26978;BME280;56314;48.088;11.642;2022-10-04T09:18:27;96052.22;;;17.44;53.13
26978;BME280;56314;48.088;11.642;2022-10-04T09:20:55;96056.88;;;17.22;53.69
26978;BME280;56314;48.088;11.642;2022-10-04T09:34:07;96056.84;;;17.32;52.68
26978;BME280;56314;48.088;11.642;2022-10-04T09:39:57;96068.38;;;16.64;53.36
26978;BME280;56314;48.088;11.642;2022-10-04T09:45:26;96060.44;;;17.78;52.84
26978;BME280;56314;48.088;11.642;2022-10-04T09:48:17;96057.34;;;18.57;48.98
26978;BME280;56314;48.088;11.642;2022-10-04T09:57:10;96047.31;;;18.69;49.04
26978;BME280;56314;48.088;11.642;2022-10-04T09:59:57;96052.69;;;18.41;50.21
26978;BME280;56314;48.088;11.642;2022-10-04T10:03:01;96047.44;;;18.13;50.98
26978;BME280;56314;48.088;11.642;2022-10-04T10:05:49;96056.09;;;17.87;52.45
26978;BME280;56314;48.088;11.642;2022-10-04T10:08:26;96046.19;;;17.79;52.02
26978;BME280;56314;48.088;11.642;2022-10-04T10:16:51;96060.00;;;17.55;51.74
26978;BME280;56314;48.088;11.642;2022-10-04T10:19:43;96068.72;;;17.28;52.43
26978;BME280;56314;48.088;11.642;2022-10-04T10:42:00;96070.13;;;16.04;59.22
26978;BME280;56314;48.088;11.642;2022-10-04T10:47:42;96083.16;;;16.37;59.23
26978;BME280;56314;48.088;11.642;2022-10-04T10:56:04;96084.13;;;17.14;56.99
26978;BME280;56314;48.088;11.642;2022-10-04T11:07:39;96070.88;;;18.45;50.43
26978;BME280;56314;48.088;11.642;2022-10-04T11:15:38;96054.81;;;18.19;52.54
26978;BME280;56314;48.088;11.642;2022-10-04T11:27:13;96055.22;;;17.87;51.10
26978;BME280;56314;48.088;11.642;2022-10-04T11:37:46;96053.44;;;17.02;53.62
26978;BME280;56314;48.088;11.642;2022-10-04T11:52:01;96045.22;;;16.26;55.60
26978;BME280;56314;48.088;11.642;2022-10-04T12:08:03;96047.28;;;16.33;53.85
26978;BME280;56314;48.088;11.642;2022-10-04T12:10:42;96037.00;;;16.29;55.08
26978;BME280;56314;48.088;11.642;2022-10-04T12:33:00;96007.56;;;19.12;46.17
26978;BME280;56314;48.088;11.642;2022-10-04T12:49:30;95991.63;;;18.49;48.29
26978;BME280;56314;48.088;11.642;2022-10-04T12:52:19;95996.47;;;18.54;47.07
26978;BME280;56314;48.088;11.642;2022-10-04T12:57:58;95993.13;;;18.52;49.54
26978;BME280;56314;48.088;11.642;2022-10-04T13:00:25;96002.94;;;18.69;47.54
26978;BME280;56314;48.088;11.642;2022-10-04T13:08:42;95992.66;;;18.56;48.60
26978;BME280;56314;48.088;11.642;2022-10-04T13:16:56;95995.25;;;18.66;47.87
26978;BME280;56314;48.088;11.642;2022-10-04T13:24:57;95989.16;;;18.74;47.88
26978;BME280;56314;48.088;11.642;2022-10-04T13:27:35;95991.13;;;18.72;48.19
26978;BME280;56314;48.088;11.642;2022-10-04T13:32:46;95976.22;;;18.79;48.44
26978;BME280;56314;48.088;11.642;2022-10-04T13:35:25;95979.03;;;18.96;48.58
26978;BME280;56314;48.088;11.642;2022-10-04T13:38:26;95982.69;;;18.95;48.76
26978;BME280;56314;48.088;11.642;2022-10-04T13:58:04;96004.69;;;18.42;50.31
26978;BME280;56314;48.088;11.642;2022-10-04T14:31:43;96007.47;;;17.11;51.90
26978;BME280;56314;48.088;11.642;2022-10-04T14:56:20;95998.34;;;16.46;54.37
26978;BME280;56314;48.088;11.642;2022-10-04T14:59:13;96003.34;;;16.30;54.73
26978;BME280;56314;48.088;11.642;2022-10-04T15:07:38;96004.75;;;16.24;56.60
26978;BME280;56314;48.088;11.642;2022-10-04T15:10:18;96013.66;;;16.13;54.96
26978;BME280;56314;48.088;11.642;2022-10-04T15:21:02;96014.81;;;15.70;56.99
26978;BME280;56314;48.088;11.642;2022-10-04T15:23:33;96010.47;;;15.69;56.86
26978;BME280;56314;48.088;11.642;2022-10-04T15:31:28;96022.25;;;15.45;58.06
26978;BME280;56314;48.088;11.642;2022-10-04T15:34:18;96022.50;;;15.42;59.91
26978;BME280;56314;48.088;11.642;2022-10-04T15:37:12;96017.31;;;15.31;60.12
26978;BME280;56314;48.088;11.642;2022-10-04T15:42:23;96019.94;;;15.21;59.16
26978;BME280;56314;48.088;11.642;2022-10-04T15:50:40;96020.91;;;14.99;61.16
26978;BME280;56314;48.088;11.642;2022-10-04T15:53:26;96026.34;;;14.97;61.34
26978;BME280;56314;48.088;11.642;2022-10-04T15:56:29;96022.38;;;14.91;62.05
26978;BME280;56314;48.088;11.642;2022-10-04T16:04:55;96011.19;;;14.78;61.99
26978;BME280;56314;48.088;11.642;2022-10-04T16:07:50;96012.81;;;14.69;62.67
26978;BME280;56314;48.088;11.642;2022-10-04T16:10:26;96020.94;;;14.66;62.86
26978;BME280;56314;48.088;11.642;2022-10-04T16:15:41;96009.63;;;14.54;62.45
26978;BME280;56314;48.088;11.642;2022-10-04T16:23:38;96014.09;;;14.42;64.11
26978;BME280;56314;48.088;11.642;2022-10-04T16:39:53;96011.53;;;13.87;67.70
26978;BME280;56314;48.088;11.642;2022-10-04T16:45:37;96008.78;;;13.77;68.88
26978;BME280;56314;48.088;11.642;2022-10-04T16:53:26;96012.31;;;13.55;71.95
26978;BME280;56314;48.088;11.642;2022-10-04T16:55:56;96021.66;;;13.48;71.49
26978;BME280;56314;48.088;11.642;2022-10-04T17:01:20;96014.56;;;13.37;72.84
26978;BME280;56314;48.088;11.642;2022-10-04T17:06:48;96014.09;;;13.20;74.30
26978;BME280;56314;48.088;11.642;2022-10-04T17:15:04;96007.50;;;13.03;75.17
26978;BME280;56314;48.088;11.642;2022-10-04T17:17:51;96009.16;;;12.93;75.71
26978;BME280;56314;48.088;11.642;2022-10-04T17:26:20;96014.75;;;12.66;78.04
26978;BME280;56314;48.088;11.642;2022-10-04T17:37:10;96015.72;;;12.40;80.38
26978;BME280;56314;48.088;11.642;2022-10-04T17:39:57;96011.88;;;12.33;80.42
26978;BME280;56314;48.088;11.642;2022-10-04T17:48:04;96022.25;;;12.23;81.86
26978;BME280;56314;48.088;11.642;2022-10-04T17:53:47;96030.56;;;12.06;82.72
26978;BME280;56314;48.088;11.642;2022-10-04T17:56:37;96037.00;;;12.01;82.69
26978;BME280;56314;48.088;11.642;2022-10-04T17:59:09;96031.53;;;12.05;82.98
26978;BME280;56314;48.088;11.642;2022-10-04T18:01:41;96036.38;;;11.98;83.78
26978;BME280;56314;48.088;11.642;2022-10-04T18:06:40;96039.41;;;11.92;83.93
26978;BME280;56314;48.088;11.642;2022-10-04T18:09:11;96038.94;;;11.86;84.97
26978;BME280;56314;48.088;11.642;2022-10-04T18:11:59;96035.28;;;11.76;85.75
26978;BME280;56314;48.088;11.642;2022-10-04T18:16:56;96041.50;;;11.62;85.99
26978;BME280;56314;48.088;11.642;2022-10-04T18:19:50;96041.75;;;11.59;85.88
26978;BME280;56314;48.088;11.642;2022-10-04T18:22:26;96048.50;;;11.50;86.87
26978;BME280;56314;48.088;11.642;2022-10-04T18:25:17;96048.28;;;11.40;87.30
26978;BME280;56314;48.088;11.642;2022-10-04T18:30:18;96047.53;;;11.38;87.53
26978;BME280;56314;48.088;11.642;2022-10-04T18:32:51;96062.41;;;11.27;87.76
26978;BME280;56314;48.088;11.642;2022-10-04T18:35:27;96047.97;;;11.19;88.63
26978;BME280;56314;48.088;11.642;2022-10-04T18:37:56;96052.09;;;11.23;88.76
26978;BME280;56314;48.088;11.642;2022-10-04T18:40:41;96049.91;;;11.17;88.73
26978;BME280;56314;48.088;11.642;2022-10-04T18:43:28;96045.25;;;11.08;88.95
26978;BME280;56314;48.088;11.642;2022-10-04T18:57:04;96054.53;;;11.01;89.65
26978;BME280;56314;48.088;11.642;2022-10-04T19:00:14;96056.31;;;11.00;89.88
26978;BME280;56314;48.088;11.642;2022-10-04T19:03:13;96054.84;;;10.96;90.18
26978;BME280;56314;48.088;11.642;2022-10-04T19:09:04;96045.47;;;10.92;90.28
26978;BME280;56314;48.088;11.642;2022-10-04T19:11:55;96044.94;;;10.74;90.56
26978;BME280;56314;48.088;11.642;2022-10-04T19:25:33;96060.13;;;10.43;92.58
26978;BME280;56314;48.088;11.642;2022-10-04T19:28:23;96067.53;;;10.36;92.44
26978;BME280;56314;48.088;11.642;2022-10-04T19:31:11;96065.41;;;10.28;93.12
26978;BME280;56314;48.088;11.642;2022-10-04T19:33:50;96071.69;;;10.26;93.82
26978;BME280;56314;48.088;11.642;2022-10-04T19:42:09;96084.59;;;10.01;93.65
26978;BME280;56314;48.088;11.642;2022-10-04T19:47:50;96089.63;;;9.92;94.36
26978;BME280;56314;48.088;11.642;2022-10-04T19:50:20;96087.94;;;9.91;94.68
26978;BME280;56314;48.088;11.642;2022-10-04T19:55:28;96074.44;;;9.82;95.48
26978;BME280;56314;48.088;11.642;2022-10-04T20:01:00;96070.94;;;9.54;97.09
26978;BME280;56314;48.088;11.642;2022-10-04T20:03:26;96082.25;;;9.55;97.52
26978;BME280;56314;48.088;11.642;2022-10-04T20:05:53;96079.09;;;9.50;97.39
26978;BME280;56314;48.088;11.642;2022-10-04T20:08:55;96084.13;;;9.53;97.20
26978;BME280;56314;48.088;11.642;2022-10-04T20:11:48;96088.09;;;9.46;97.50
26978;BME280;56314;48.088;11.642;2022-10-04T20:19:30;96083.31;;;9.38;97.67
26978;BME280;56314;48.088;11.642;2022-10-04T20:27:06;96074.16;;;9.31;97.58
26978;BME280;56314;48.088;11.642;2022-10-04T20:34:52;96073.22;;;9.17;98.28
26978;BME280;56314;48.088;11.642;2022-10-04T20:37:17;96081.34;;;9.13;98.47
26978;BME280;56314;48.088;11.642;2022-10-04T20:42:09;96075.34;;;9.11;98.94
26978;BME280;56314;48.088;11.642;2022-10-04T20:44:53;96083.41;;;9.07;98.91
26978;BME280;56314;48.088;11.642;2022-10-04T20:47:30;96084.69;;;9.15;98.49
26978;BME280;56314;48.088;11.642;2022-10-04T20:49:58;96083.75;;;9.16;97.86
26978;BME280;56314;48.088;11.642;2022-10-04T20:52:31;96083.03;;;9.14;98.23
26978;BME280;56314;48.088;11.642;2022-10-04T20:54:58;96075.72;;;9.04;98.41
26978;BME280;56314;48.088;11.642;2022-10-04T20:57:26;96090.78;;;9.01;98.35
26978;BME280;56314;48.088;11.642;2022-10-04T20:59:53;96081.41;;;8.97;98.86
26978;BME280;56314;48.088;11.642;2022-10-04T21:02:20;96091.16;;;8.95;98.46
26978;BME280;56314;48.088;11.642;2022-10-04T21:04:47;96092.91;;;8.94;98.80
26978;BME280;56314;48.088;11.642;2022-10-04T21:07:18;96085.00;;;8.96;98.69
26978;BME280;56314;48.088;11.642;2022-10-04T21:09:44;96102.13;;;9.01;98.30
26978;BME280;56314;48.088;11.642;2022-10-04T21:15:20;96098.53;;;8.88;97.61
26978;BME280;56314;48.088;11.642;2022-10-04T21:20:47;96110.50;;;8.77;98.87
26978;BME280;56314;48.088;11.642;2022-10-04T21:23:33;96109.19;;;8.85;98.77
26978;BME280;56314;48.088;11.642;2022-10-04T21:28:44;96109.19;;;8.85;98.30
26978;BME280;56314;48.088;11.642;2022-10-04T21:31:10;96111.41;;;8.76;97.62
26978;BME280;56314;48.088;11.642;2022-10-04T21:33:35;96114.47;;;8.69;97.85
26978;BME280;56314;48.088;11.642;2022-10-04T21:36:02;96115.47;;;8.66;98.20
26978;BME280;56314;48.088;11.642;2022-10-04T21:38:27;96117.38;;;8.64;98.28
26978;BME280;56314;48.088;11.642;2022-10-04T21:40:53;96108.44;;;8.52;98.60
26978;BME280;56314;48.088;11.642;2022-10-04T21:43:20;96124.25;;;8.51;98.42
26978;BME280;56314;48.088;11.642;2022-10-04T21:45:46;96128.72;;;8.49;99.14
26978;BME280;56314;48.088;11.642;2022-10-04T21:48:11;96131.22;;;8.50;99.99
26978;BME280;56314;48.088;11.642;2022-10-04T21:50:36;96123.97;;;8.55;99.92
26978;BME280;56314;48.088;11.642;2022-10-04T21:53:02;96124.06;;;8.54;99.57
26978;BME280;56314;48.088;11.642;2022-10-04T21:55:27;96129.53;;;8.49;100.00
26978;BME280;56314;48.088;11.642;2022-10-04T21:57:52;96128.94;;;8.44;100.00
26978;BME280;56314;48.088;11.642;2022-10-04T22:00:18;96140.66;;;8.37;100.00
26978;BME280;56314;48.088;11.642;2022-10-04T22:02:43;96136.63;;;8.47;100.00
26978;BME280;56314;48.088;11.642;2022-10-04T22:05:08;96136.03;;;8.42;100.00
26978;BME280;56314;48.088;11.642;2022-10-04T22:07:34;96133.59;;;8.39;100.00
26978;BME280;56314;48.088;11.642;2022-10-04T22:09:59;96140.50;;;8.40;100.00
26978;BME280;56314;48.088;11.642;2022-10-04T22:12:24;96139.47;;;8.42;100.00
26978;BME280;56314;48.088;11.642;2022-10-04T22:14:50;96124.63;;;8.43;99.57
26978;BME280;56314;48.088;11.642;2022-10-04T22:17:16;96133.19;;;8.30;99.95
26978;BME280;56314;48.088;11.642;2022-10-04T22:19:41;96136.81;;;8.28;99.80
26978;BME280;56314;48.088;11.642;2022-10-04T22:22:13;96128.63;;;8.18;100.00
26978;BME280;56314;48.088;11.642;2022-10-04T22:24:39;96123.31;;;8.20;100.00
26978;BME280;56314;48.088;11.642;2022-10-04T22:27:11;96126.63;;;8.23;100.00
26978;BME280;56314;48.088;11.642;2022-10-04T22:29:37;96119.44;;;8.27;100.00
26978;BME280;56314;48.088;11.642;2022-10-04T22:32:10;96117.91;;;8.23;100.00
26978;BME280;56314;48.088;11.642;2022-10-04T22:34:37;96118.78;;;8.23;100.00
26978;BME280;56314;48.088;11.642;2022-10-04T22:37:02;96126.34;;;8.28;100.00
26978;BME280;56314;48.088;11.642;2022-10-04T22:39:30;96124.66;;;8.27;100.00
26978;BME280;56314;48.088;11.642;2022-10-04T22:41:57;96120.28;;;8.11;100.00
26978;BME280;56314;48.088;11.642;2022-10-04T22:44:27;96124.75;;;8.09;100.00
26978;BME280;56314;48.088;11.642;2022-10-04T22:46:58;96126.03;;;8.02;100.00
26978;BME280;56314;48.088;11.642;2022-10-04T22:49:27;96127.06;;;7.99;100.00